sensor_id;sensor_type;location;lat;lon;timestamp;P1;durP1;ratioP1;P2;durP2;ratioP2
58697;SDS011;44475;53.206;-6.106;2023-07-13T00:02:24;3.53;;;1.92;;
58697;SDS011;44475;53.206;-6.106;2023-07-13T00:04:52;2.67;;;1.80;;
58697;SDS011;44475;53.206;-6.106;2023-07-13T00:07:18;3.50;;;1.92;;
58697;SDS011;44475;53.206;-6.106;2023-07-13T00:09:48;3.33;;;1.80;;
58697;SDS011;44475;53.206;-6.106;2023-07-13T00:12:25;3.33;;;1.92;;
58697;SDS011;44475;53.206;-6.106;2023-07-13T00:14:51;3.90;;;1.98;;
58697;SDS011;44475;53.206;-6.106;2023-07-13T00:17:17;3.25;;;1.92;;
58697;SDS011;44475;53.206;-6.106;2023-07-13T00:19:44;3.10;;;1.90;;
58697;SDS011;44475;53.206;-6.106;2023-07-13T00:22:10;3.28;;;1.92;;
58697;SDS011;44475;53.206;-6.106;2023-07-13T00:24:37;3.17;;;1.70;;
58697;SDS011;44475;53.206;-6.106;2023-07-13T00:27:07;3.03;;;1.80;;
58697;SDS011;44475;53.206;-6.106;2023-07-13T00:29:36;2.50;;;1.80;;
58697;SDS011;44475;53.206;-6.106;2023-07-13T00:32:03;3.22;;;1.70;;
58697;SDS011;44475;53.206;-6.106;2023-07-13T00:34:31;2.78;;;1.80;;
58697;SDS011;44475;53.206;-6.106;2023-07-13T00:36:57;3.95;;;1.73;;
58697;SDS011;44475;53.206;-6.106;2023-07-13T00:39:24;2.38;;;1.75;;
58697;SDS011;44475;53.206;-6.106;2023-07-13T00:41:50;3.70;;;1.90;;
58697;SDS011;44475;53.206;-6.106;2023-07-13T00:44:19;2.85;;;1.65;;
58697;SDS011;44475;53.206;-6.106;2023-07-13T00:46:48;2.47;;;1.60;;
58697;SDS011;44475;53.206;-6.106;2023-07-13T00:49:16;3.80;;;1.90;;
58697;SDS011;44475;53.206;-6.106;2023-07-13T00:51:54;2.58;;;1.55;;
58697;SDS011;44475;53.206;-6.106;2023-07-13T00:54:28;2.60;;;1.70;;
58697;SDS011;44475;53.206;-6.106;2023-07-13T00:57:02;4.60;;;1.70;;
58697;SDS011;44475;53.206;-6.106;2023-07-13T00:59:31;3.53;;;1.60;;
58697;SDS011;44475;53.206;-6.106;2023-07-13T01:02:00;3.05;;;1.80;;
58697;SDS011;44475;53.206;-6.106;2023-07-13T01:04:27;3.42;;;1.73;;
58697;SDS011;44475;53.206;-6.106;2023-07-13T01:06:54;3.47;;;1.83;;
58697;SDS011;44475;53.206;-6.106;2023-07-13T01:09:22;2.85;;;1.70;;
58697;SDS011;44475;53.206;-6.106;2023-07-13T01:11:49;3.17;;;1.70;;
58697;SDS011;44475;53.206;-6.106;2023-07-13T01:14:15;2.92;;;1.67;;
58697;SDS011;44475;53.206;-6.106;2023-07-13T01:16:42;3.05;;;1.88;;
58697;SDS011;44475;53.206;-6.106;2023-07-13T01:19:16;2.90;;;1.80;;
58697;SDS011;44475;53.206;-6.106;2023-07-13T01:22:03;2.17;;;1.60;;
58697;SDS011;44475;53.206;-6.106;2023-07-13T01:24:43;2.75;;;1.67;;
58697;SDS011;44475;53.206;-6.106;2023-07-13T01:27:12;1.98;;;1.60;;
58697;SDS011;44475;53.206;-6.106;2023-07-13T01:29:41;3.03;;;1.80;;
58697;SDS011;44475;53.206;-6.106;2023-07-13T01:32:10;2.80;;;1.67;;
58697;SDS011;44475;53.206;-6.106;2023-07-13T01:34:37;3.08;;;1.80;;
58697;SDS011;44475;53.206;-6.106;2023-07-13T01:37:07;2.95;;;1.77;;
58697;SDS011;44475;53.206;-6.106;2023-07-13T01:39:35;3.20;;;1.70;;
58697;SDS011;44475;53.206;-6.106;2023-07-13T01:42:02;2.47;;;1.60;;
58697;SDS011;44475;53.206;-6.106;2023-07-13T01:44:28;3.03;;;1.67;;
58697;SDS011;44475;53.206;-6.106;2023-07-13T01:46:55;2.80;;;1.63;;
58697;SDS011;44475;53.206;-6.106;2023-07-13T01:49:21;2.85;;;1.70;;
58697;SDS011;44475;53.206;-6.106;2023-07-13T01:51:48;2.35;;;1.70;;
58697;SDS011;44475;53.206;-6.106;2023-07-13T01:54:14;2.78;;;1.60;;
58697;SDS011;44475;53.206;-6.106;2023-07-13T01:56:42;2.70;;;1.52;;
58697;SDS011;44475;53.206;-6.106;2023-07-13T01:59:08;2.50;;;1.40;;
58697;SDS011;44475;53.206;-6.106;2023-07-13T02:01:35;2.63;;;1.60;;
58697;SDS011;44475;53.206;-6.106;2023-07-13T02:04:01;2.53;;;1.60;;
58697;SDS011;44475;53.206;-6.106;2023-07-13T02:06:32;3.95;;;1.75;;
58697;SDS011;44475;53.206;-6.106;2023-07-13T02:08:58;1.88;;;1.60;;
58697;SDS011;44475;53.206;-6.106;2023-07-13T02:11:25;2.40;;;1.60;;
58697;SDS011;44475;53.206;-6.106;2023-07-13T02:13:57;2.17;;;1.50;;
58697;SDS011;44475;53.206;-6.106;2023-07-13T02:16:24;2.03;;;1.50;;
58697;SDS011;44475;53.206;-6.106;2023-07-13T02:18:51;2.63;;;1.60;;
58697;SDS011;44475;53.206;-6.106;2023-07-13T02:21:17;3.40;;;1.58;;
58697;SDS011;44475;53.206;-6.106;2023-07-13T02:23:43;2.25;;;1.42;;
58697;SDS011;44475;53.206;-6.106;2023-07-13T02:26:09;2.80;;;1.67;;
58697;SDS011;44475;53.206;-6.106;2023-07-13T02:28:36;2.83;;;1.70;;
58697;SDS011;44475;53.206;-6.106;2023-07-13T02:31:06;2.22;;;1.58;;
58697;SDS011;44475;53.206;-6.106;2023-07-13T02:33:34;1.95;;;1.42;;
58697;SDS011;44475;53.206;-6.106;2023-07-13T02:36:00;2.75;;;1.52;;
58697;SDS011;44475;53.206;-6.106;2023-07-13T02:38:26;2.63;;;1.60;;
58697;SDS011;44475;53.206;-6.106;2023-07-13T02:40:53;3.20;;;1.70;;
58697;SDS011;44475;53.206;-6.106;2023-07-13T02:43:19;4.13;;;1.70;;
58697;SDS011;44475;53.206;-6.106;2023-07-13T02:45:46;3.00;;;1.60;;
58697;SDS011;44475;53.206;-6.106;2023-07-13T02:48:13;3.05;;;1.65;;
58697;SDS011;44475;53.206;-6.106;2023-07-13T02:50:40;1.85;;;1.42;;
58697;SDS011;44475;53.206;-6.106;2023-07-13T02:53:06;3.08;;;1.75;;
58697;SDS011;44475;53.206;-6.106;2023-07-13T02:55:32;1.80;;;1.45;;
58697;SDS011;44475;53.206;-6.106;2023-07-13T02:57:58;2.90;;;1.60;;
58697;SDS011;44475;53.206;-6.106;2023-07-13T03:00:24;1.80;;;1.50;;
58697;SDS011;44475;53.206;-6.106;2023-07-13T03:02:51;2.22;;;1.60;;
58697;SDS011;44475;53.206;-6.106;2023-07-13T03:05:17;2.80;;;1.55;;
58697;SDS011;44475;53.206;-6.106;2023-07-13T03:07:44;3.28;;;1.63;;
58697;SDS011;44475;53.206;-6.106;2023-07-13T03:10:10;2.22;;;1.60;;
58697;SDS011;44475;53.206;-6.106;2023-07-13T03:12:43;3.22;;;1.73;;
58697;SDS011;44475;53.206;-6.106;2023-07-13T03:15:17;2.53;;;1.60;;
58697;SDS011;44475;53.206;-6.106;2023-07-13T03:17:44;2.70;;;1.70;;
58697;SDS011;44475;53.206;-6.106;2023-07-13T03:20:11;2.10;;;1.60;;
58697;SDS011;44475;53.206;-6.106;2023-07-13T03:22:37;2.28;;;1.50;;
58697;SDS011;44475;53.206;-6.106;2023-07-13T03:25:04;2.15;;;1.48;;
58697;SDS011;44475;53.206;-6.106;2023-07-13T03:27:30;3.05;;;1.70;;
58697;SDS011;44475;53.206;-6.106;2023-07-13T03:29:57;1.98;;;1.55;;
58697;SDS011;44475;53.206;-6.106;2023-07-13T03:32:23;3.17;;;1.70;;
58697;SDS011;44475;53.206;-6.106;2023-07-13T03:34:49;2.05;;;1.50;;
58697;SDS011;44475;53.206;-6.106;2023-07-13T03:37:16;3.13;;;1.50;;
58697;SDS011;44475;53.206;-6.106;2023-07-13T03:39:43;3.05;;;1.60;;
58697;SDS011;44475;53.206;-6.106;2023-07-13T03:42:09;3.33;;;1.85;;
58697;SDS011;44475;53.206;-6.106;2023-07-13T03:44:35;2.50;;;1.50;;
58697;SDS011;44475;53.206;-6.106;2023-07-13T03:47:03;2.88;;;1.70;;
58697;SDS011;44475;53.206;-6.106;2023-07-13T03:49:31;2.00;;;1.60;;
58697;SDS011;44475;53.206;-6.106;2023-07-13T03:51:57;2.20;;;1.60;;
58697;SDS011;44475;53.206;-6.106;2023-07-13T03:54:24;4.32;;;1.70;;
58697;SDS011;44475;53.206;-6.106;2023-07-13T03:56:50;2.75;;;1.70;;
58697;SDS011;44475;53.206;-6.106;2023-07-13T03:59:18;3.00;;;1.58;;
58697;SDS011;44475;53.206;-6.106;2023-07-13T04:01:45;2.45;;;1.70;;
58697;SDS011;44475;53.206;-6.106;2023-07-13T04:04:11;2.75;;;1.50;;
58697;SDS011;44475;53.206;-6.106;2023-07-13T04:06:38;2.15;;;1.50;;
58697;SDS011;44475;53.206;-6.106;2023-07-13T04:09:04;2.47;;;1.63;;
58697;SDS011;44475;53.206;-6.106;2023-07-13T04:11:31;2.42;;;1.60;;
58697;SDS011;44475;53.206;-6.106;2023-07-13T04:13:59;2.60;;;1.60;;
58697;SDS011;44475;53.206;-6.106;2023-07-13T04:16:25;3.35;;;1.70;;
58697;SDS011;44475;53.206;-6.106;2023-07-13T04:18:52;3.42;;;1.75;;
58697;SDS011;44475;53.206;-6.106;2023-07-13T04:21:20;2.58;;;1.50;;
58697;SDS011;44475;53.206;-6.106;2023-07-13T04:23:47;2.97;;;1.60;;
58697;SDS011;44475;53.206;-6.106;2023-07-13T04:26:13;2.78;;;1.50;;
58697;SDS011;44475;53.206;-6.106;2023-07-13T04:28:39;2.63;;;1.50;;
58697;SDS011;44475;53.206;-6.106;2023-07-13T04:31:05;1.95;;;1.60;;
58697;SDS011;44475;53.206;-6.106;2023-07-13T04:33:32;2.75;;;1.55;;
58697;SDS011;44475;53.206;-6.106;2023-07-13T04:35:59;1.92;;;1.50;;
58697;SDS011;44475;53.206;-6.106;2023-07-13T04:38:27;3.03;;;1.70;;
58697;SDS011;44475;53.206;-6.106;2023-07-13T04:40:55;3.13;;;1.63;;
58697;SDS011;44475;53.206;-6.106;2023-07-13T04:43:24;2.67;;;1.60;;
58697;SDS011;44475;53.206;-6.106;2023-07-13T04:45:51;2.67;;;1.63;;
58697;SDS011;44475;53.206;-6.106;2023-07-13T04:48:18;3.28;;;1.60;;
58697;SDS011;44475;53.206;-6.106;2023-07-13T04:50:45;1.88;;;1.48;;
58697;SDS011;44475;53.206;-6.106;2023-07-13T04:53:12;2.70;;;1.52;;
58697;SDS011;44475;53.206;-6.106;2023-07-13T04:55:39;2.95;;;1.70;;
58697;SDS011;44475;53.206;-6.106;2023-07-13T04:58:06;3.88;;;1.60;;
58697;SDS011;44475;53.206;-6.106;2023-07-13T05:00:32;4.00;;;1.75;;
58697;SDS011;44475;53.206;-6.106;2023-07-13T05:02:59;2.13;;;1.50;;
58697;SDS011;44475;53.206;-6.106;2023-07-13T05:05:25;3.25;;;1.63;;
58697;SDS011;44475;53.206;-6.106;2023-07-13T05:07:52;2.53;;;1.50;;
58697;SDS011;44475;53.206;-6.106;2023-07-13T05:10:18;3.15;;;2.03;;
58697;SDS011;44475;53.206;-6.106;2023-07-13T05:12:45;2.22;;;1.52;;
58697;SDS011;44475;53.206;-6.106;2023-07-13T05:15:11;2.35;;;1.45;;
58697;SDS011;44475;53.206;-6.106;2023-07-13T05:17:38;3.30;;;1.55;;
58697;SDS011;44475;53.206;-6.106;2023-07-13T05:20:06;2.65;;;1.70;;
58697;SDS011;44475;53.206;-6.106;2023-07-13T05:22:33;2.50;;;1.60;;
58697;SDS011;44475;53.206;-6.106;2023-07-13T05:25:00;2.75;;;1.90;;
58697;SDS011;44475;53.206;-6.106;2023-07-13T05:27:29;2.42;;;1.60;;
58697;SDS011;44475;53.206;-6.106;2023-07-13T05:29:56;2.72;;;1.50;;
58697;SDS011;44475;53.206;-6.106;2023-07-13T05:32:22;2.10;;;1.50;;
58697;SDS011;44475;53.206;-6.106;2023-07-13T05:34:48;3.05;;;1.77;;
58697;SDS011;44475;53.206;-6.106;2023-07-13T05:37:14;2.45;;;1.60;;
58697;SDS011;44475;53.206;-6.106;2023-07-13T05:39:41;5.25;;;1.50;;
58697;SDS011;44475;53.206;-6.106;2023-07-13T05:42:07;2.13;;;1.50;;
58697;SDS011;44475;53.206;-6.106;2023-07-13T05:44:33;4.22;;;1.50;;
58697;SDS011;44475;53.206;-6.106;2023-07-13T05:47:00;2.65;;;1.63;;
58697;SDS011;44475;53.206;-6.106;2023-07-13T05:49:26;2.38;;;1.60;;
58697;SDS011;44475;53.206;-6.106;2023-07-13T05:51:53;2.20;;;1.52;;
58697;SDS011;44475;53.206;-6.106;2023-07-13T05:54:19;2.13;;;1.42;;
58697;SDS011;44475;53.206;-6.106;2023-07-13T05:56:45;3.08;;;1.70;;
58697;SDS011;44475;53.206;-6.106;2023-07-13T05:59:12;3.03;;;1.65;;
58697;SDS011;44475;53.206;-6.106;2023-07-13T06:01:38;2.28;;;1.48;;
58697;SDS011;44475;53.206;-6.106;2023-07-13T06:04:04;2.30;;;1.63;;
58697;SDS011;44475;53.206;-6.106;2023-07-13T06:06:31;2.22;;;1.63;;
58697;SDS011;44475;53.206;-6.106;2023-07-13T06:08:57;1.80;;;1.65;;
58697;SDS011;44475;53.206;-6.106;2023-07-13T06:11:24;2.63;;;1.50;;
58697;SDS011;44475;53.206;-6.106;2023-07-13T06:13:52;3.17;;;1.60;;
58697;SDS011;44475;53.206;-6.106;2023-07-13T06:16:19;2.88;;;1.52;;
58697;SDS011;44475;53.206;-6.106;2023-07-13T06:18:45;3.53;;;1.75;;
58697;SDS011;44475;53.206;-6.106;2023-07-13T06:21:13;2.60;;;1.60;;
58697;SDS011;44475;53.206;-6.106;2023-07-13T06:23:41;2.97;;;1.70;;
58697;SDS011;44475;53.206;-6.106;2023-07-13T06:26:08;3.10;;;1.75;;
58697;SDS011;44475;53.206;-6.106;2023-07-13T06:28:36;2.65;;;1.50;;
58697;SDS011;44475;53.206;-6.106;2023-07-13T06:31:04;1.95;;;1.50;;
58697;SDS011;44475;53.206;-6.106;2023-07-13T06:33:31;3.85;;;1.70;;
58697;SDS011;44475;53.206;-6.106;2023-07-13T06:35:58;3.58;;;1.70;;
58697;SDS011;44475;53.206;-6.106;2023-07-13T06:38:24;4.28;;;1.77;;
58697;SDS011;44475;53.206;-6.106;2023-07-13T06:40:51;4.70;;;2.10;;
58697;SDS011;44475;53.206;-6.106;2023-07-13T06:43:17;6.57;;;1.80;;
58697;SDS011;44475;53.206;-6.106;2023-07-13T06:45:46;6.72;;;1.90;;
58697;SDS011;44475;53.206;-6.106;2023-07-13T06:48:15;4.63;;;1.85;;
58697;SDS011;44475;53.206;-6.106;2023-07-13T06:50:42;6.30;;;1.80;;
58697;SDS011;44475;53.206;-6.106;2023-07-13T06:53:09;4.57;;;1.70;;
58697;SDS011;44475;53.206;-6.106;2023-07-13T06:55:37;5.65;;;1.90;;
58697;SDS011;44475;53.206;-6.106;2023-07-13T06:58:03;6.07;;;1.85;;
58697;SDS011;44475;53.206;-6.106;2023-07-13T07:00:30;6.32;;;1.70;;
58697;SDS011;44475;53.206;-6.106;2023-07-13T07:02:56;3.25;;;1.80;;
58697;SDS011;44475;53.206;-6.106;2023-07-13T07:05:22;3.33;;;1.55;;
58697;SDS011;44475;53.206;-6.106;2023-07-13T07:07:49;5.35;;;1.83;;
58697;SDS011;44475;53.206;-6.106;2023-07-13T07:10:17;3.65;;;1.70;;
58697;SDS011;44475;53.206;-6.106;2023-07-13T07:12:44;3.58;;;1.70;;
58697;SDS011;44475;53.206;-6.106;2023-07-13T07:15:11;5.63;;;1.77;;
58697;SDS011;44475;53.206;-6.106;2023-07-13T07:17:37;3.25;;;1.67;;
58697;SDS011;44475;53.206;-6.106;2023-07-13T07:20:04;3.42;;;1.65;;
58697;SDS011;44475;53.206;-6.106;2023-07-13T07:22:31;4.85;;;2.13;;
58697;SDS011;44475;53.206;-6.106;2023-07-13T07:24:57;2.78;;;1.75;;
58697;SDS011;44475;53.206;-6.106;2023-07-13T07:27:24;2.40;;;1.40;;
58697;SDS011;44475;53.206;-6.106;2023-07-13T07:29:50;4.07;;;1.80;;
58697;SDS011;44475;53.206;-6.106;2023-07-13T07:32:18;4.90;;;1.80;;
58697;SDS011;44475;53.206;-6.106;2023-07-13T07:34:45;3.45;;;1.77;;
58697;SDS011;44475;53.206;-6.106;2023-07-13T07:37:12;3.70;;;1.75;;
58697;SDS011;44475;53.206;-6.106;2023-07-13T07:39:39;3.45;;;1.65;;
58697;SDS011;44475;53.206;-6.106;2023-07-13T07:42:05;4.10;;;1.63;;
58697;SDS011;44475;53.206;-6.106;2023-07-13T07:44:32;3.78;;;1.70;;
58697;SDS011;44475;53.206;-6.106;2023-07-13T07:46:59;2.80;;;1.60;;
58697;SDS011;44475;53.206;-6.106;2023-07-13T07:49:25;5.43;;;1.80;;
58697;SDS011;44475;53.206;-6.106;2023-07-13T07:51:52;3.13;;;1.67;;
58697;SDS011;44475;53.206;-6.106;2023-07-13T07:54:18;3.13;;;1.70;;
58697;SDS011;44475;53.206;-6.106;2023-07-13T07:56:44;3.35;;;1.65;;
58697;SDS011;44475;53.206;-6.106;2023-07-13T07:59:10;2.60;;;1.58;;
58697;SDS011;44475;53.206;-6.106;2023-07-13T08:01:37;4.93;;;1.70;;
58697;SDS011;44475;53.206;-6.106;2023-07-13T08:04:03;3.13;;;1.60;;
58697;SDS011;44475;53.206;-6.106;2023-07-13T08:06:31;3.33;;;1.80;;
58697;SDS011;44475;53.206;-6.106;2023-07-13T08:08:58;2.78;;;2.10;;
58697;SDS011;44475;53.206;-6.106;2023-07-13T08:11:25;2.75;;;1.80;;
58697;SDS011;44475;53.206;-6.106;2023-07-13T08:13:51;2.92;;;1.55;;
58697;SDS011;44475;53.206;-6.106;2023-07-13T08:16:17;3.40;;;1.85;;
58697;SDS011;44475;53.206;-6.106;2023-07-13T08:18:44;1.98;;;1.40;;
58697;SDS011;44475;53.206;-6.106;2023-07-13T08:21:10;3.70;;;1.70;;
58697;SDS011;44475;53.206;-6.106;2023-07-13T08:23:36;2.83;;;1.63;;
58697;SDS011;44475;53.206;-6.106;2023-07-13T08:26:02;2.67;;;1.58;;
58697;SDS011;44475;53.206;-6.106;2023-07-13T08:28:29;2.53;;;1.70;;
58697;SDS011;44475;53.206;-6.106;2023-07-13T08:31:04;3.83;;;1.60;;
58697;SDS011;44475;53.206;-6.106;2023-07-13T08:33:33;2.75;;;1.73;;
58697;SDS011;44475;53.206;-6.106;2023-07-13T08:36:00;4.72;;;1.80;;
58697;SDS011;44475;53.206;-6.106;2023-07-13T08:38:27;2.05;;;1.50;;
58697;SDS011;44475;53.206;-6.106;2023-07-13T08:40:54;2.40;;;1.60;;
58697;SDS011;44475;53.206;-6.106;2023-07-13T08:43:34;4.18;;;1.73;;
58697;SDS011;44475;53.206;-6.106;2023-07-13T08:48:56;3.33;;;1.70;;
58697;SDS011;44475;53.206;-6.106;2023-07-13T08:54:18;2.70;;;1.58;;
58697;SDS011;44475;53.206;-6.106;2023-07-13T08:56:49;2.42;;;1.63;;
58697;SDS011;44475;53.206;-6.106;2023-07-13T08:59:19;2.10;;;1.50;;
58697;SDS011;44475;53.206;-6.106;2023-07-13T09:04:23;2.90;;;1.67;;
58697;SDS011;44475;53.206;-6.106;2023-07-13T09:10:09;2.55;;;1.60;;
58697;SDS011;44475;53.206;-6.106;2023-07-13T09:12:51;1.85;;;1.50;;
58697;SDS011;44475;53.206;-6.106;2023-07-13T09:15:36;1.65;;;1.42;;
58697;SDS011;44475;53.206;-6.106;2023-07-13T09:20:50;2.92;;;1.50;;
58697;SDS011;44475;53.206;-6.106;2023-07-13T09:23:22;1.77;;;1.40;;
58697;SDS011;44475;53.206;-6.106;2023-07-13T09:28:37;2.28;;;1.40;;
58697;SDS011;44475;53.206;-6.106;2023-07-13T09:31:26;2.83;;;1.58;;
58697;SDS011;44475;53.206;-6.106;2023-07-13T09:34:00;3.25;;;1.60;;
58697;SDS011;44475;53.206;-6.106;2023-07-13T09:36:30;4.55;;;1.70;;
58697;SDS011;44475;53.206;-6.106;2023-07-13T09:39:22;2.47;;;1.60;;
58697;SDS011;44475;53.206;-6.106;2023-07-13T09:41:51;2.33;;;1.60;;
58697;SDS011;44475;53.206;-6.106;2023-07-13T09:44:28;2.58;;;1.50;;
58697;SDS011;44475;53.206;-6.106;2023-07-13T09:46:56;2.45;;;1.60;;
58697;SDS011;44475;53.206;-6.106;2023-07-13T09:49:44;2.78;;;1.60;;
58697;SDS011;44475;53.206;-6.106;2023-07-13T09:52:14;2.22;;;1.48;;
58697;SDS011;44475;53.206;-6.106;2023-07-13T09:54:44;1.95;;;1.42;;
58697;SDS011;44475;53.206;-6.106;2023-07-13T09:57:15;2.33;;;1.40;;
58697;SDS011;44475;53.206;-6.106;2023-07-13T09:59:44;2.53;;;1.55;;
58697;SDS011;44475;53.206;-6.106;2023-07-13T10:07:26;2.28;;;1.50;;
58697;SDS011;44475;53.206;-6.106;2023-07-13T10:09:53;2.40;;;1.60;;
58697;SDS011;44475;53.206;-6.106;2023-07-13T10:12:20;2.10;;;1.50;;
58697;SDS011;44475;53.206;-6.106;2023-07-13T10:14:54;3.50;;;1.77;;
58697;SDS011;44475;53.206;-6.106;2023-07-13T10:17:29;3.50;;;1.67;;
58697;SDS011;44475;53.206;-6.106;2023-07-13T10:20:06;3.22;;;1.60;;
58697;SDS011;44475;53.206;-6.106;2023-07-13T10:25:37;2.50;;;1.50;;
58697;SDS011;44475;53.206;-6.106;2023-07-13T10:28:14;2.80;;;1.67;;
58697;SDS011;44475;53.206;-6.106;2023-07-13T10:30:48;2.13;;;1.50;;
58697;SDS011;44475;53.206;-6.106;2023-07-13T10:33:18;2.17;;;1.60;;
58697;SDS011;44475;53.206;-6.106;2023-07-13T10:35:45;1.90;;;1.48;;
58697;SDS011;44475;53.206;-6.106;2023-07-13T10:38:20;6.32;;;2.10;;
58697;SDS011;44475;53.206;-6.106;2023-07-13T10:40:56;4.47;;;2.00;;
58697;SDS011;44475;53.206;-6.106;2023-07-13T10:43:36;4.68;;;1.70;;
58697;SDS011;44475;53.206;-6.106;2023-07-13T10:46:13;4.45;;;2.00;;
58697;SDS011;44475;53.206;-6.106;2023-07-13T10:48:42;4.22;;;2.10;;
58697;SDS011;44475;53.206;-6.106;2023-07-13T10:51:14;4.15;;;2.00;;
58697;SDS011;44475;53.206;-6.106;2023-07-13T10:53:42;3.55;;;1.80;;
58697;SDS011;44475;53.206;-6.106;2023-07-13T10:56:28;4.22;;;2.00;;
58697;SDS011;44475;53.206;-6.106;2023-07-13T11:04:47;3.97;;;2.20;;
58697;SDS011;44475;53.206;-6.106;2023-07-13T11:09:51;4.30;;;2.30;;
58697;SDS011;44475;53.206;-6.106;2023-07-13T11:22:49;5.95;;;2.40;;
58697;SDS011;44475;53.206;-6.106;2023-07-13T11:25:24;5.00;;;2.30;;
58697;SDS011;44475;53.206;-6.106;2023-07-13T11:30:48;4.90;;;2.10;;
58697;SDS011;44475;53.206;-6.106;2023-07-13T11:35:53;3.42;;;2.08;;
58697;SDS011;44475;53.206;-6.106;2023-07-13T11:38:40;4.63;;;2.47;;
58697;SDS011;44475;53.206;-6.106;2023-07-13T11:44:01;5.22;;;2.30;;
58697;SDS011;44475;53.206;-6.106;2023-07-13T11:46:33;4.97;;;2.50;;
58697;SDS011;44475;53.206;-6.106;2023-07-13T11:48:59;6.60;;;2.35;;
58697;SDS011;44475;53.206;-6.106;2023-07-13T11:51:26;4.65;;;2.22;;
58697;SDS011;44475;53.206;-6.106;2023-07-13T11:53:56;4.90;;;2.25;;
58697;SDS011;44475;53.206;-6.106;2023-07-13T11:56:29;4.18;;;2.00;;
58697;SDS011;44475;53.206;-6.106;2023-07-13T11:58:57;5.55;;;2.17;;
58697;SDS011;44475;53.206;-6.106;2023-07-13T12:01:29;4.22;;;2.10;;
58697;SDS011;44475;53.206;-6.106;2023-07-13T12:03:58;5.90;;;2.20;;
58697;SDS011;44475;53.206;-6.106;2023-07-13T12:06:30;3.80;;;2.20;;
58697;SDS011;44475;53.206;-6.106;2023-07-13T12:08:59;3.47;;;2.00;;
58697;SDS011;44475;53.206;-6.106;2023-07-13T12:11:28;6.80;;;2.30;;
58697;SDS011;44475;53.206;-6.106;2023-07-13T12:13:55;4.32;;;2.08;;
58697;SDS011;44475;53.206;-6.106;2023-07-13T12:18:52;3.13;;;2.05;;
58697;SDS011;44475;53.206;-6.106;2023-07-13T12:21:19;3.47;;;2.10;;
58697;SDS011;44475;53.206;-6.106;2023-07-13T12:23:54;3.45;;;1.90;;
58697;SDS011;44475;53.206;-6.106;2023-07-13T12:26:20;5.22;;;2.00;;
58697;SDS011;44475;53.206;-6.106;2023-07-13T12:28:48;4.57;;;1.90;;
58697;SDS011;44475;53.206;-6.106;2023-07-13T12:31:25;2.92;;;1.85;;
58697;SDS011;44475;53.206;-6.106;2023-07-13T12:34:15;4.20;;;2.00;;
58697;SDS011;44475;53.206;-6.106;2023-07-13T12:36:56;3.05;;;1.90;;
58697;SDS011;44475;53.206;-6.106;2023-07-13T12:44:43;6.22;;;2.20;;
58697;SDS011;44475;53.206;-6.106;2023-07-13T12:47:11;3.55;;;1.90;;
58697;SDS011;44475;53.206;-6.106;2023-07-13T12:49:43;3.78;;;1.90;;
58697;SDS011;44475;53.206;-6.106;2023-07-13T12:52:16;3.42;;;1.75;;
58697;SDS011;44475;53.206;-6.106;2023-07-13T12:54:58;4.40;;;1.88;;
58697;SDS011;44475;53.206;-6.106;2023-07-13T12:57:41;3.42;;;1.90;;
58697;SDS011;44475;53.206;-6.106;2023-07-13T13:02:54;3.88;;;1.77;;
58697;SDS011;44475;53.206;-6.106;2023-07-13T13:05:24;6.80;;;1.85;;
58697;SDS011;44475;53.206;-6.106;2023-07-13T13:07:52;4.03;;;2.00;;
58697;SDS011;44475;53.206;-6.106;2023-07-13T13:10:18;3.17;;;2.00;;
58697;SDS011;44475;53.206;-6.106;2023-07-13T13:12:46;4.07;;;1.90;;
58697;SDS011;44475;53.206;-6.106;2023-07-13T13:15:13;3.45;;;2.00;;
58697;SDS011;44475;53.206;-6.106;2023-07-13T13:17:41;2.70;;;1.73;;
58697;SDS011;44475;53.206;-6.106;2023-07-13T13:20:18;2.90;;;1.90;;
58697;SDS011;44475;53.206;-6.106;2023-07-13T13:22:46;4.25;;;2.10;;
58697;SDS011;44475;53.206;-6.106;2023-07-13T13:25:13;2.50;;;1.80;;
58697;SDS011;44475;53.206;-6.106;2023-07-13T13:27:43;2.88;;;2.00;;
58697;SDS011;44475;53.206;-6.106;2023-07-13T13:30:14;3.10;;;1.70;;
58697;SDS011;44475;53.206;-6.106;2023-07-13T13:32:43;3.28;;;1.90;;
58697;SDS011;44475;53.206;-6.106;2023-07-13T13:35:15;3.40;;;1.90;;
58697;SDS011;44475;53.206;-6.106;2023-07-13T13:37:43;3.08;;;1.90;;
58697;SDS011;44475;53.206;-6.106;2023-07-13T13:40:15;3.55;;;1.90;;
58697;SDS011;44475;53.206;-6.106;2023-07-13T13:42:43;3.47;;;2.00;;
58697;SDS011;44475;53.206;-6.106;2023-07-13T13:45:10;3.15;;;1.80;;
58697;SDS011;44475;53.206;-6.106;2023-07-13T13:47:43;3.97;;;1.90;;
58697;SDS011;44475;53.206;-6.106;2023-07-13T13:52:44;3.22;;;1.98;;
58697;SDS011;44475;53.206;-6.106;2023-07-13T13:55:12;2.88;;;1.90;;
58697;SDS011;44475;53.206;-6.106;2023-07-13T13:57:44;3.42;;;1.85;;
58697;SDS011;44475;53.206;-6.106;2023-07-13T14:00:11;2.85;;;1.85;;
58697;SDS011;44475;53.206;-6.106;2023-07-13T14:02:39;3.80;;;1.90;;
58697;SDS011;44475;53.206;-6.106;2023-07-13T14:05:12;3.03;;;1.85;;
58697;SDS011;44475;53.206;-6.106;2023-07-13T14:07:41;2.67;;;1.90;;
58697;SDS011;44475;53.206;-6.106;2023-07-13T14:10:17;2.38;;;1.70;;
58697;SDS011;44475;53.206;-6.106;2023-07-13T14:12:53;4.30;;;1.90;;
58697;SDS011;44475;53.206;-6.106;2023-07-13T14:15:23;3.55;;;2.00;;
58697;SDS011;44475;53.206;-6.106;2023-07-13T14:17:56;3.67;;;1.70;;
58697;SDS011;44475;53.206;-6.106;2023-07-13T14:20:23;2.72;;;1.80;;
58697;SDS011;44475;53.206;-6.106;2023-07-13T14:22:52;2.75;;;1.67;;
58697;SDS011;44475;53.206;-6.106;2023-07-13T14:25:20;4.00;;;2.22;;
58697;SDS011;44475;53.206;-6.106;2023-07-13T14:27:48;2.70;;;1.80;;
58697;SDS011;44475;53.206;-6.106;2023-07-13T14:30:19;4.85;;;1.90;;
58697;SDS011;44475;53.206;-6.106;2023-07-13T14:32:46;2.47;;;1.90;;
58697;SDS011;44475;53.206;-6.106;2023-07-13T14:35:14;4.20;;;1.80;;
58697;SDS011;44475;53.206;-6.106;2023-07-13T14:37:43;3.45;;;2.00;;
58697;SDS011;44475;53.206;-6.106;2023-07-13T14:40:15;5.07;;;2.00;;
58697;SDS011;44475;53.206;-6.106;2023-07-13T14:42:44;3.40;;;1.70;;
58697;SDS011;44475;53.206;-6.106;2023-07-13T14:45:12;2.53;;;1.77;;
58697;SDS011;44475;53.206;-6.106;2023-07-13T14:47:40;4.95;;;1.90;;
58697;SDS011;44475;53.206;-6.106;2023-07-13T14:50:17;4.50;;;1.90;;
58697;SDS011;44475;53.206;-6.106;2023-07-13T14:52:51;3.40;;;1.90;;
58697;SDS011;44475;53.206;-6.106;2023-07-13T14:55:18;2.88;;;1.80;;
58697;SDS011;44475;53.206;-6.106;2023-07-13T14:57:45;3.85;;;2.00;;
58697;SDS011;44475;53.206;-6.106;2023-07-13T15:00:14;4.25;;;1.90;;
58697;SDS011;44475;53.206;-6.106;2023-07-13T15:02:43;5.32;;;1.90;;
58697;SDS011;44475;53.206;-6.106;2023-07-13T15:05:16;2.60;;;1.67;;
58697;SDS011;44475;53.206;-6.106;2023-07-13T15:07:44;3.17;;;1.80;;
58697;SDS011;44475;53.206;-6.106;2023-07-13T15:12:43;4.20;;;1.90;;
58697;SDS011;44475;53.206;-6.106;2023-07-13T15:15:10;3.28;;;1.90;;
58697;SDS011;44475;53.206;-6.106;2023-07-13T15:17:37;3.17;;;2.00;;
58697;SDS011;44475;53.206;-6.106;2023-07-13T15:22:49;3.50;;;1.70;;
58697;SDS011;44475;53.206;-6.106;2023-07-13T15:25:17;3.22;;;1.80;;
58697;SDS011;44475;53.206;-6.106;2023-07-13T15:27:45;3.42;;;2.00;;
58697;SDS011;44475;53.206;-6.106;2023-07-13T15:30:13;3.42;;;1.85;;
58697;SDS011;44475;53.206;-6.106;2023-07-13T15:32:41;2.53;;;1.90;;
58697;SDS011;44475;53.206;-6.106;2023-07-13T15:37:41;3.58;;;2.00;;
58697;SDS011;44475;53.206;-6.106;2023-07-13T15:40:08;3.47;;;1.88;;
58697;SDS011;44475;53.206;-6.106;2023-07-13T15:42:35;2.33;;;1.70;;
58697;SDS011;44475;53.206;-6.106;2023-07-13T15:45:04;2.97;;;1.80;;
58697;SDS011;44475;53.206;-6.106;2023-07-13T15:47:38;3.70;;;1.85;;
58697;SDS011;44475;53.206;-6.106;2023-07-13T15:50:05;5.35;;;1.92;;
58697;SDS011;44475;53.206;-6.106;2023-07-13T15:52:36;2.92;;;1.60;;
58697;SDS011;44475;53.206;-6.106;2023-07-13T15:55:02;2.72;;;1.70;;
58697;SDS011;44475;53.206;-6.106;2023-07-13T15:57:29;3.40;;;2.10;;